Shawnee, Kansas
Current Conditions -  °F | °C
As of 3:54 AM on Friday 19 Dec 2014 (Local Time) from KMKC Reporting Station
Haze Haze  
Wind Chill: 33°   Ceiling: 700
Heat Index: 33°   Visibility: 6mi
Dew Point: 30°   Wind: 0mph
Humidity: 89%   Direction: NA
Pressure: 30.25"   Gusts: NA
Location:  39.02°N, 94.71°W
Report Text: KMKC 190954Z AUTO 00000KT 6SM BR OVC007 01/M01 A3025 RMK AO2 SLP251 T00061011
Loading
Personal Weather Stations






























Interactive Weather Map New forecast layout! Learn more

10-Day Weather Forecast

Advertisements
Track Severe Weather on mobile